Time;durP1;ratioP1;P1;durP2;ratioP2;P2;SDS_P1;SDS_P2;PMS_P1;PMS_P2;Temp;Humidity;BMP_temperature;BMP_pressure;BME280_temperature;BME280_humidity;BME280_pressure;Samples;Min_cycle;Max_cycle;Signal;HPM_P1;HPM_P2
2021/05/24 00:02:17;;;;;;;;;;;;;;;9.07;100.00;100802.00;5076287;28;20292;-79
2021/05/24 00:04:45;;;;;;;;;;;;;;;9.22;100.00;100804.91;5076558;28;20386;-71
2021/05/24 00:07:13;;;;;;;;;;;;;;;9.17;100.00;100797.13;5076657;28;19920;-70
2021/05/24 00:09:41;;;;;;;;;;;;;;;9.11;100.00;100806.25;5076196;28;20015;-70
2021/05/24 00:12:09;;;;;;;;;;;;;;;9.02;100.00;100806.66;5076161;28;19920;-71
2021/05/24 00:14:39;;;;;;;;;;;;;;;8.99;100.00;100805.94;5076105;28;19931;-71
2021/05/24 00:17:06;;;;;;;;;;;;;;;8.94;100.00;100807.94;5076221;28;20384;-70
2021/05/24 00:19:34;;;;;;;;;;;;;;;8.94;100.00;100795.50;5075837;28;19921;-73
2021/05/24 00:22:02;;;;;;;;;;;;;;;8.85;100.00;100795.91;5076372;28;19970;-75
2021/05/24 00:24:30;;;;;;;;;;;;;;;8.89;100.00;100793.06;5075854;28;19927;-70
2021/05/24 00:26:57;;;;;;;;;;;;;;;8.90;100.00;100793.91;5075391;28;19927;-70
2021/05/24 00:29:26;;;;;;;;;;;;;;;8.93;100.00;100795.56;5075571;28;19956;-70
2021/05/24 00:31:54;;;;;;;;;;;;;;;8.89;100.00;100802.84;5075889;28;19927;-71
2021/05/24 00:34:22;;;;;;;;;;;;;;;8.93;100.00;100804.41;5075745;28;20015;-70
2021/05/24 00:36:49;;;;;;;;;;;;;;;8.81;100.00;100804.97;5075835;28;19974;-71
2021/05/24 00:39:18;;;;;;;;;;;;;;;8.76;100.00;100812.25;5075979;28;19921;-71
2021/05/24 00:41:46;;;;;;;;;;;;;;;8.74;100.00;100807.00;5075744;28;19921;-71
2021/05/24 00:44:13;;;;;;;;;;;;;;;8.85;100.00;100811.88;5075909;28;19927;-71
2021/05/24 00:46:41;;;;;;;;;;;;;;;8.93;100.00;100809.72;5075366;28;19950;-71
2021/05/24 00:49:08;;;;;;;;;;;;;;;8.89;100.00;100806.34;5075859;28;19935;-72
2021/05/24 00:51:36;;;;;;;;;;;;;;;8.91;100.00;100810.75;5075409;28;19925;-72
2021/05/24 00:54:04;;;;;;;;;;;;;;;8.82;100.00;100809.34;5075583;28;20007;-74
2021/05/24 00:56:33;;;;;;;;;;;;;;;8.70;100.00;100801.91;5075257;28;19921;-74
2021/05/24 00:59:00;;;;;;;;;;;;;;;8.54;100.00;100807.88;5075683;28;19959;-74
2021/05/24 01:01:29;;;;;;;;;;;;;;;8.46;100.00;100817.97;5075471;28;19931;-73
2021/05/24 01:03:58;;;;;;;;;;;;;;;8.46;100.00;100810.00;5075272;28;19950;-74
2021/05/24 01:06:25;;;;;;;;;;;;;;;8.44;100.00;100811.00;5075383;28;19927;-72
2021/05/24 01:08:53;;;;;;;;;;;;;;;8.43;100.00;100820.78;5075473;28;19985;-73
2021/05/24 01:11:21;;;;;;;;;;;;;;;8.40;100.00;100820.06;5075303;28;19924;-72
2021/05/24 01:13:52;;;;;;;;;;;;;;;8.39;100.00;100819.16;5075070;28;19975;-74
2021/05/24 01:16:22;;;;;;;;;;;;;;;8.39;100.00;100828.94;5075522;28;19927;-72
2021/05/24 01:18:50;;;;;;;;;;;;;;;8.35;100.00;100816.72;5075019;28;20280;-73
2021/05/24 01:21:19;;;;;;;;;;;;;;;8.31;100.00;100821.25;5075256;28;20011;-74
2021/05/24 01:23:47;;;;;;;;;;;;;;;8.38;100.00;100829.84;5074706;28;19927;-74
2021/05/24 01:26:14;;;;;;;;;;;;;;;8.49;100.00;100839.13;5074856;28;19950;-73
2021/05/24 01:28:43;;;;;;;;;;;;;;;8.56;100.00;100832.59;5074426;28;19975;-72
2021/05/24 01:31:11;;;;;;;;;;;;;;;8.44;100.00;100843.78;5074682;28;19928;-73
2021/05/24 01:33:39;;;;;;;;;;;;;;;8.44;100.00;100843.78;5074582;28;19920;-73
2021/05/24 01:36:10;;;;;;;;;;;;;;;8.33;100.00;100851.31;5074868;28;19920;-73
2021/05/24 01:38:42;;;;;;;;;;;;;;;8.46;100.00;100847.22;5074017;28;20297;-71
2021/05/24 01:41:11;;;;;;;;;;;;;;;8.50;100.00;100840.88;5074572;28;19921;-71
2021/05/24 01:43:39;;;;;;;;;;;;;;;8.46;100.00;100841.03;5074314;28;19982;-71
2021/05/24 01:46:06;;;;;;;;;;;;;;;8.33;100.00;100845.97;5074621;28;19966;-71
2021/05/24 01:48:35;;;;;;;;;;;;;;;8.25;100.00;100848.94;5074197;28;19974;-71
2021/05/24 01:51:04;;;;;;;;;;;;;;;8.32;100.00;100857.53;5074722;28;19974;-71
2021/05/24 01:53:33;;;;;;;;;;;;;;;8.29;100.00;100847.88;5073912;28;19924;-71
2021/05/24 01:56:01;;;;;;;;;;;;;;;8.26;100.00;100849.81;5074605;28;19920;-71
2021/05/24 01:58:30;;;;;;;;;;;;;;;8.23;100.00;100857.91;5074084;28;19966;-72
2021/05/24 02:01:01;;;;;;;;;;;;;;;8.15;100.00;100852.91;5074345;28;19970;-71
2021/05/24 02:03:29;;;;;;;;;;;;;;;8.12;100.00;100855.69;5074092;28;19924;-72
2021/05/24 02:05:57;;;;;;;;;;;;;;;8.12;100.00;100865.47;5074261;28;19926;-74
2021/05/24 02:08:25;;;;;;;;;;;;;;;8.27;100.00;100867.47;5074206;28;19924;-78
2021/05/24 02:10:53;;;;;;;;;;;;;;;8.42;100.00;100863.38;5074130;28;20407;-73
2021/05/24 02:13:21;;;;;;;;;;;;;;;8.52;100.00;100857.59;5074045;28;19924;-73
2021/05/24 02:15:49;;;;;;;;;;;;;;;8.58;100.00;100852.00;5073650;28;19920;-74
2021/05/24 02:18:16;;;;;;;;;;;;;;;8.60;100.00;100860.81;5073861;28;19967;-73
2021/05/24 02:20:44;;;;;;;;;;;;;;;8.59;100.00;100871.53;5073656;28;20007;-73
2021/05/24 02:23:11;;;;;;;;;;;;;;;8.42;100.00;100861.59;5073966;28;19921;-71
2021/05/24 02:25:39;;;;;;;;;;;;;;;8.26;100.00;100865.75;5073883;28;19924;-71
2021/05/24 02:28:07;;;;;;;;;;;;;;;8.17;100.00;100871.44;5074177;28;19924;-71
2021/05/24 02:30:35;;;;;;;;;;;;;;;8.02;100.00;100868.50;5073458;28;19966;-72
2021/05/24 02:33:04;;;;;;;;;;;;;;;7.94;100.00;100864.41;5073615;28;20372;-72
2021/05/24 02:35:32;;;;;;;;;;;;;;;7.90;100.00;100863.63;5073438;28;20270;-72
2021/05/24 02:38:00;;;;;;;;;;;;;;;7.84;100.00;100858.59;5073553;28;19974;-73
2021/05/24 02:40:28;;;;;;;;;;;;;;;7.84;100.00;100866.56;5073182;28;19928;-77
2021/05/24 02:42:56;;;;;;;;;;;;;;;7.88;100.00;100860.19;5073645;28;19925;-72
2021/05/24 02:45:23;;;;;;;;;;;;;;;7.86;100.00;100864.69;5085681;28;19943;-73
2021/05/24 02:47:52;;;;;;;;;;;;;;;7.85;100.00;100865.63;5078558;28;19921;-73
2021/05/24 02:50:21;;;;;;;;;;;;;;;7.82;100.00;100865.75;5073499;28;19921;-73
2021/05/24 02:52:49;;;;;;;;;;;;;;;7.71;100.00;100867.94;5073668;28;19925;-73
2021/05/24 02:55:16;;;;;;;;;;;;;;;7.68;100.00;100876.03;5073999;28;20305;-73
2021/05/24 02:57:44;;;;;;;;;;;;;;;7.72;100.00;100874.97;5073489;28;20049;-75
2021/05/24 03:00:12;;;;;;;;;;;;;;;7.84;100.00;100889.59;5073628;28;19920;-74
2021/05/24 03:02:45;;;;;;;;;;;;;;;8.03;100.00;100890.59;5072985;28;19921;-74
2021/05/24 03:05:15;;;;;;;;;;;;;;;8.11;100.00;100904.47;5073732;28;19927;-74
2021/05/24 03:07:43;;;;;;;;;;;;;;;8.10;100.00;100905.34;5073076;28;19928;-76
2021/05/24 03:10:11;;;;;;;;;;;;;;;8.01;100.00;100911.06;5073435;28;19924;-74
2021/05/24 03:12:39;;;;;;;;;;;;;;;7.96;100.00;100905.91;5072862;28;20015;-73
2021/05/24 03:15:08;;;;;;;;;;;;;;;8.11;100.00;100906.25;5073392;28;19921;-74
2021/05/24 03:17:35;;;;;;;;;;;;;;;8.23;100.00;100903.09;5073036;28;19954;-74
2021/05/24 03:20:03;;;;;;;;;;;;;;;8.31;100.00;100901.88;5073255;28;19931;-73
2021/05/24 03:22:32;;;;;;;;;;;;;;;8.20;100.00;100903.19;5073015;28;19960;-75
2021/05/24 03:25:00;;;;;;;;;;;;;;;8.20;100.00;100896.13;5073223;28;20008;-74
2021/05/24 03:27:28;;;;;;;;;;;;;;;8.33;100.00;100902.66;5073260;28;19928;-73
2021/05/24 03:29:56;;;;;;;;;;;;;;;8.38;100.00;100909.59;5089025;28;19920;-73
2021/05/24 03:32:26;;;;;;;;;;;;;;;8.25;100.00;100911.88;5073240;28;19924;-73
2021/05/24 03:34:54;;;;;;;;;;;;;;;8.28;100.00;100917.06;5072663;28;20293;-72
2021/05/24 03:37:23;;;;;;;;;;;;;;;8.31;100.00;100930.25;5072929;28;19920;-73
2021/05/24 03:39:52;;;;;;;;;;;;;;;8.36;100.00;100924.75;5072903;28;19932;-74
2021/05/24 03:42:20;;;;;;;;;;;;;;;8.62;100.00;100926.38;5073200;28;19920;-73
2021/05/24 03:44:47;;;;;;;;;;;;;;;9.37;100.00;100932.00;5072703;28;19928;-73
2021/05/24 03:47:15;;;;;;;;;;;;;;;10.32;95.54;100933.81;5072937;28;19921;-73
2021/05/24 03:49:45;;;;;;;;;;;;;;;11.23;89.75;100923.00;5072761;28;20339;-74
2021/05/24 03:52:13;;;;;;;;;;;;;;;12.31;85.11;100925.13;5072939;28;20399;-76
2021/05/24 03:54:41;;;;;;;;;;;;;;;13.10;80.25;100922.28;5072465;28;20246;-76
2021/05/24 03:57:10;;;;;;;;;;;;;;;13.87;76.78;100931.00;5073093;28;19951;-73
2021/05/24 03:59:38;;;;;;;;;;;;;;;14.36;73.85;100917.09;5072576;28;19920;-74
2021/05/24 04:02:05;;;;;;;;;;;;;;;14.76;71.08;100909.97;5074015;28;20026;-74
2021/05/24 04:04:33;;;;;;;;;;;;;;;15.62;67.86;100921.94;5076315;28;19924;-83
2021/05/24 04:07:02;;;;;;;;;;;;;;;15.84;65.97;100915.94;5076514;28;19921;-74
2021/05/24 04:09:30;;;;;;;;;;;;;;;16.16;65.12;100926.19;5076574;28;19974;-73
2021/05/24 04:11:58;;;;;;;;;;;;;;;16.44;63.68;100927.72;5076409;28;19920;-73
2021/05/24 04:14:26;;;;;;;;;;;;;;;16.89;62.04;100931.53;5076169;28;19920;-74
2021/05/24 04:16:54;;;;;;;;;;;;;;;16.95;61.54;100931.06;5076008;28;19925;-74
2021/05/24 04:19:22;;;;;;;;;;;;;;;17.23;60.57;100926.25;5076144;28;19994;-74
2021/05/24 04:21:49;;;;;;;;;;;;;;;16.81;61.93;100923.16;5075791;28;19952;-75
2021/05/24 04:24:17;;;;;;;;;;;;;;;17.10;60.60;100913.72;5076333;28;19924;-74
2021/05/24 04:26:45;;;;;;;;;;;;;;;17.68;58.46;100921.78;5075834;28;19920;-74
2021/05/24 04:29:12;;;;;;;;;;;;;;;18.26;57.24;100920.69;5075917;28;19920;-74
2021/05/24 04:31:41;;;;;;;;;;;;;;;18.58;56.14;100919.88;5075892;28;20440;-77
2021/05/24 04:34:11;;;;;;;;;;;;;;;18.72;54.76;100921.44;5076165;28;19950;-75
2021/05/24 04:36:38;;;;;;;;;;;;;;;18.12;55.62;100925.50;5075598;28;20335;-76
2021/05/24 04:39:06;;;;;;;;;;;;;;;17.19;58.93;100922.94;5075926;28;20024;-75
2021/05/24 04:41:34;;;;;;;;;;;;;;;17.38;58.87;100911.59;5075914;28;19974;-77
2021/05/24 04:44:11;;;;;;;;;;;;;;;18.48;55.66;100916.22;5075599;28;19924;-76
2021/05/24 04:46:39;;;;;;;;;;;;;;;18.95;54.61;100923.09;5075616;28;19924;-82
2021/05/24 04:49:07;;;;;;;;;;;;;;;19.46;54.40;100916.88;5075740;28;19921;-79
2021/05/24 04:51:34;;;;;;;;;;;;;;;19.41;53.11;100914.59;5075817;28;20335;-77
2021/05/24 04:54:02;;;;;;;;;;;;;;;19.01;54.16;100905.47;5075186;28;19928;-76
2021/05/24 04:56:30;;;;;;;;;;;;;;;19.09;53.54;100902.97;5075514;28;19974;-76
2021/05/24 04:58:57;;;;;;;;;;;;;;;19.39;52.70;100916.56;5075246;28;19924;-76
2021/05/24 05:01:25;;;;;;;;;;;;;;;19.13;53.21;100912.56;5075372;28;19921;-77
2021/05/24 05:03:53;;;;;;;;;;;;;;;19.05;54.51;100917.75;5075291;28;19920;-75
2021/05/24 05:06:21;;;;;;;;;;;;;;;18.56;55.79;100921.84;5075486;28;19921;-75
2021/05/24 05:08:49;;;;;;;;;;;;;;;18.55;56.49;100920.13;5074888;28;19928;-75
2021/05/24 05:11:16;;;;;;;;;;;;;;;18.80;55.98;100922.53;5075142;28;19926;-78
2021/05/24 05:13:44;;;;;;;;;;;;;;;18.90;55.59;100924.44;5074309;28;20373;-77
2021/05/24 05:16:12;;;;;;;;;;;;;;;19.74;54.39;100931.63;5075231;28;19920;-79
2021/05/24 05:18:39;;;;;;;;;;;;;;;19.82;53.77;100948.03;5075141;28;20328;-79
2021/05/24 05:21:07;;;;;;;;;;;;;;;20.69;51.88;100942.94;5075451;28;19963;-79
2021/05/24 05:23:39;;;;;;;;;;;;;;;20.50;51.94;100957.31;5075150;28;19963;-78
2021/05/24 05:26:07;;;;;;;;;;;;;;;20.32;51.60;100977.88;5074899;28;19925;-74
2021/05/24 05:28:34;;;;;;;;;;;;;;;20.38;51.38;100968.38;5075112;28;19982;-74
2021/05/24 05:31:02;;;;;;;;;;;;;;;19.48;54.93;100966.31;5074867;28;20339;-76
2021/05/24 05:33:29;;;;;;;;;;;;;;;19.29;54.29;100969.72;5075072;28;19920;-77
2021/05/24 05:35:57;;;;;;;;;;;;;;;20.48;52.98;100962.00;5074286;28;19920;-74
2021/05/24 05:38:26;;;;;;;;;;;;;;;20.69;52.04;100955.63;5074624;28;20273;-74
2021/05/24 05:40:54;;;;;;;;;;;;;;;21.08;50.60;100937.53;5074451;28;19998;-74
2021/05/24 05:43:24;;;;;;;;;;;;;;;21.18;46.99;100937.50;5074881;28;19924;-77
2021/05/24 05:45:55;;;;;;;;;;;;;;;21.74;48.25;100939.44;5074357;28;19942;-76
2021/05/24 05:48:23;;;;;;;;;;;;;;;22.08;47.53;100934.31;5074292;28;20043;-74
2021/05/24 05:50:50;;;;;;;;;;;;;;;21.83;47.07;100941.28;5074077;28;19927;-76
2021/05/24 05:53:20;;;;;;;;;;;;;;;22.06;45.50;100939.88;5074237;28;20432;-76
2021/05/24 05:55:47;;;;;;;;;;;;;;;21.64;47.88;100942.19;5074309;28;19920;-76
2021/05/24 05:58:16;;;;;;;;;;;;;;;21.20;47.08;100935.50;5074034;28;19928;-75
2021/05/24 06:00:43;;;;;;;;;;;;;;;20.70;48.27;100939.22;5074598;28;19970;-80
2021/05/24 06:03:11;;;;;;;;;;;;;;;19.61;50.92;100933.69;5074202;28;19974;-75
2021/05/24 06:05:39;;;;;;;;;;;;;;;18.58;54.89;100936.09;5074110;28;20011;-75
2021/05/24 06:08:07;;;;;;;;;;;;;;;19.55;52.91;100939.59;5073899;28;19943;-75
2021/05/24 06:10:35;;;;;;;;;;;;;;;20.38;50.69;100958.38;5074284;28;19965;-75
2021/05/24 06:13:03;;;;;;;;;;;;;;;21.39;47.93;100954.50;5072991;28;19920;-76
2021/05/24 06:15:32;;;;;;;;;;;;;;;21.93;48.06;100953.81;5077404;28;19921;-76
2021/05/24 06:17:59;;;;;;;;;;;;;;;22.14;46.03;100964.47;5088559;28;19974;-76
2021/05/24 06:20:27;;;;;;;;;;;;;;;22.72;45.01;100966.88;5079377;28;19926;-75
2021/05/24 06:22:54;;;;;;;;;;;;;;;23.29;41.62;100964.72;5074367;28;19977;-75
2021/05/24 06:25:22;;;;;;;;;;;;;;;23.15;43.22;100968.00;5074394;28;19920;-74
2021/05/24 06:27:50;;;;;;;;;;;;;;;21.61;46.75;100962.31;5073912;28;20433;-75
2021/05/24 06:30:17;;;;;;;;;;;;;;;21.32;48.79;100966.94;5074351;28;19920;-73
2021/05/24 06:32:46;;;;;;;;;;;;;;;21.66;48.50;100968.19;5073527;28;20319;-77
2021/05/24 06:35:16;;;;;;;;;;;;;;;22.24;47.18;100957.13;5073885;28;19939;-74
2021/05/24 06:37:43;;;;;;;;;;;;;;;23.02;44.87;100962.09;5073577;28;19931;-72
2021/05/24 06:40:11;;;;;;;;;;;;;;;23.08;42.89;100961.50;5072307;28;19927;-74
2021/05/24 06:42:39;;;;;;;;;;;;;;;22.02;44.57;100956.66;5073376;28;19920;-75
2021/05/24 06:45:09;;;;;;;;;;;;;;;21.31;48.02;100962.50;5072816;28;19931;-75
2021/05/24 06:47:36;;;;;;;;;;;;;;;22.72;47.06;100960.56;5073618;28;20011;-82
2021/05/24 06:50:06;;;;;;;;;;;;;;;22.48;46.71;100961.13;5073390;28;20015;-78
2021/05/24 06:52:34;;;;;;;;;;;;;;;21.93;46.68;100970.09;5073414;28;19939;-78
2021/05/24 06:55:01;;;;;;;;;;;;;;;21.70;46.24;100980.44;5071589;28;19935;-77
2021/05/24 06:57:30;;;;;;;;;;;;;;;21.03;49.53;100994.88;5077200;28;19921;-77
2021/05/24 06:59:58;;;;;;;;;;;;;;;20.33;50.17;100987.72;5072456;28;19920;-75
2021/05/24 07:02:26;;;;;;;;;;;;;;;20.27;49.39;100988.28;5072543;28;19927;-79
2021/05/24 07:04:53;;;;;;;;;;;;;;;20.00;51.72;100987.03;5073727;28;20262;-81
2021/05/24 07:07:23;;;;;;;;;;;;;;;20.08;52.71;100982.81;5073506;28;19920;-82
2021/05/24 07:09:51;;;;;;;;;;;;;;;20.13;52.38;100973.25;5073466;28;19963;-75
2021/05/24 07:12:18;;;;;;;;;;;;;;;20.20;49.11;100968.16;5073308;28;19927;-76
2021/05/24 07:14:50;;;;;;;;;;;;;;;19.82;51.03;100950.75;5072671;28;19920;-75
2021/05/24 07:17:18;;;;;;;;;;;;;;;19.57;53.36;100962.00;5073887;28;19998;-73
2021/05/24 07:19:46;;;;;;;;;;;;;;;19.63;52.35;100966.88;5073270;28;20270;-76
2021/05/24 07:22:13;;;;;;;;;;;;;;;19.39;53.03;100964.41;5072840;28;19921;-74
2021/05/24 07:24:42;;;;;;;;;;;;;;;19.16;53.01;100958.25;5073280;28;19948;-73
2021/05/24 07:27:10;;;;;;;;;;;;;;;19.27;55.02;100952.78;5072984;28;19966;-77
2021/05/24 07:29:38;;;;;;;;;;;;;;;19.39;53.03;100945.47;5073090;28;19920;-77
2021/05/24 07:32:09;;;;;;;;;;;;;;;19.45;53.19;100947.66;5073304;28;20438;-75
2021/05/24 07:34:37;;;;;;;;;;;;;;;19.33;52.09;100943.31;5073273;28;20288;-76
2021/05/24 07:37:07;;;;;;;;;;;;;;;19.29;52.92;100945.38;5074320;28;19920;-77
2021/05/24 07:39:35;;;;;;;;;;;;;;;19.31;53.28;100954.25;5077009;28;20430;-77
2021/05/24 07:42:05;;;;;;;;;;;;;;;19.32;53.42;100950.56;5076731;28;19920;-75
2021/05/24 07:44:33;;;;;;;;;;;;;;;19.10;51.36;100934.44;5076240;28;19921;-72
2021/05/24 07:47:01;;;;;;;;;;;;;;;18.73;50.24;100937.56;5075834;28;19920;-81
2021/05/24 07:49:29;;;;;;;;;;;;;;;18.29;51.71;100931.25;5076986;28;19950;-82
2021/05/24 07:51:57;;;;;;;;;;;;;;;17.98;53.69;100926.63;5076033;28;19926;-77
2021/05/24 07:54:24;;;;;;;;;;;;;;;17.98;55.04;100924.78;5076274;28;20355;-79
2021/05/24 07:56:52;;;;;;;;;;;;;;;18.13;55.22;100922.66;5076676;28;19924;-75
2021/05/24 07:59:23;;;;;;;;;;;;;;;18.33;55.17;100920.19;5076550;28;20025;-77
2021/05/24 08:01:54;;;;;;;;;;;;;;;18.30;56.78;100916.75;5076764;28;19924;-76
2021/05/24 08:04:21;;;;;;;;;;;;;;;18.28;57.39;100923.25;5076604;28;19920;-77
2021/05/24 08:06:50;;;;;;;;;;;;;;;18.03;55.38;100932.47;5076388;28;19927;-78
2021/05/24 08:09:18;;;;;;;;;;;;;;;17.94;55.88;100919.72;5076309;28;20305;-76
2021/05/24 08:11:46;;;;;;;;;;;;;;;17.86;57.20;100923.06;5076404;28;19921;-74
2021/05/24 08:14:15;;;;;;;;;;;;;;;17.82;57.41;100916.19;5076199;28;19926;-75
2021/05/24 08:16:44;;;;;;;;;;;;;;;17.94;57.36;100922.44;5076133;28;19920;-74
2021/05/24 08:19:12;;;;;;;;;;;;;;;17.80;58.24;100923.53;5076130;28;19920;-72
2021/05/24 08:21:40;;;;;;;;;;;;;;;17.95;57.87;100924.13;5076070;28;20275;-74
2021/05/24 08:24:08;;;;;;;;;;;;;;;18.03;56.54;100922.53;5075978;28;20458;-74
2021/05/24 08:26:36;;;;;;;;;;;;;;;17.96;55.94;100920.50;5076155;28;19920;-74
2021/05/24 08:29:04;;;;;;;;;;;;;;;17.99;56.41;100925.63;5075747;28;19920;-73
2021/05/24 08:31:32;;;;;;;;;;;;;;;17.87;57.43;100937.41;5075812;28;19920;-74
2021/05/24 08:34:01;;;;;;;;;;;;;;;18.13;57.25;100946.97;5075871;28;19920;-75
2021/05/24 08:36:28;;;;;;;;;;;;;;;18.22;57.01;100945.34;5073119;28;19920;-75
2021/05/24 08:38:56;;;;;;;;;;;;;;;18.25;55.96;100937.88;5075491;28;19928;-74
2021/05/24 08:41:24;;;;;;;;;;;;;;;18.33;56.21;100917.47;5075761;28;19927;-73
2021/05/24 08:43:53;;;;;;;;;;;;;;;18.45;56.20;100924.59;5074932;28;19927;-75
2021/05/24 08:46:21;;;;;;;;;;;;;;;18.37;56.64;100924.34;5075219;28;20339;-75
2021/05/24 08:48:49;;;;;;;;;;;;;;;18.42;56.63;100933.78;5074253;28;19920;-76
2021/05/24 08:51:17;;;;;;;;;;;;;;;18.54;56.70;100946.31;5075076;28;20006;-75
2021/05/24 08:53:45;;;;;;;;;;;;;;;18.78;54.57;100940.72;5072529;28;19924;-74
2021/05/24 08:56:13;;;;;;;;;;;;;;;18.95;55.08;100949.25;5074781;28;19942;-76
2021/05/24 08:58:40;;;;;;;;;;;;;;;19.08;56.36;100931.88;5074956;28;19968;-77
2021/05/24 09:01:08;;;;;;;;;;;;;;;19.14;53.81;100928.66;5074963;28;19960;-75
2021/05/24 09:03:36;;;;;;;;;;;;;;;19.22;53.46;100938.81;5075184;28;19920;-72
2021/05/24 09:06:07;;;;;;;;;;;;;;;19.12;53.70;100932.47;5074437;28;19974;-74
2021/05/24 09:08:37;;;;;;;;;;;;;;;18.95;52.95;100933.91;5091445;28;19924;-70
2021/05/24 09:11:05;;;;;;;;;;;;;;;19.03;54.59;100925.16;5076662;28;19920;-70
2021/05/24 09:13:33;;;;;;;;;;;;;;;19.11;54.06;100928.91;5075393;28;19959;-71
2021/05/24 09:16:05;;;;;;;;;;;;;;;19.22;54.06;100921.72;5074615;28;20380;-70
2021/05/24 09:18:33;;;;;;;;;;;;;;;19.54;54.25;100919.78;5073346;28;20385;-77
2021/05/24 09:21:02;;;;;;;;;;;;;;;19.66;52.85;100912.47;5050706;28;20407;-76
2021/05/24 09:23:32;;;;;;;;;;;;;;;19.68;52.29;100910.47;5070572;28;20289;-75
2021/05/24 09:26:03;;;;;;;;;;;;;;;19.49;53.89;100913.06;5073456;28;19928;-73
2021/05/24 09:28:39;;;;;;;;;;;;;;;19.24;53.97;100911.63;5073628;28;20010;-74
2021/05/24 09:31:10;;;;;;;;;;;;;;;19.27;55.20;100906.81;5073331;28;19920;-75
2021/05/24 09:33:42;;;;;;;;;;;;;;;19.29;55.52;100915.63;5074344;28;19927;-76
2021/05/24 09:36:14;;;;;;;;;;;;;;;19.35;53.95;100915.13;5074451;28;19979;-75
2021/05/24 09:38:43;;;;;;;;;;;;;;;19.30;53.08;100906.56;5074165;28;19927;-74
2021/05/24 09:41:12;;;;;;;;;;;;;;;19.40;53.47;100895.81;5074522;28;19924;-74
2021/05/24 09:43:44;;;;;;;;;;;;;;;19.62;52.86;100887.53;5075202;28;19921;-75
2021/05/24 09:46:16;;;;;;;;;;;;;;;19.60;52.92;100886.81;5058370;28;20429;-79
2021/05/24 09:48:46;;;;;;;;;;;;;;;19.39;52.97;100877.84;5078175;28;19987;-79
2021/05/24 09:51:15;;;;;;;;;;;;;;;19.42;53.13;100878.44;5090776;28;19920;-75
2021/05/24 09:53:54;;;;;;;;;;;;;;;19.20;52.85;100878.56;5081868;28;19920;-75
2021/05/24 09:56:23;;;;;;;;;;;;;;;19.04;53.79;100878.19;5075871;28;19920;-71
2021/05/24 09:59:08;;;;;;;;;;;;;;;19.13;55.28;100872.00;5074135;28;19974;-74
2021/05/24 10:01:39;;;;;;;;;;;;;;;19.15;53.63;100859.19;5073699;28;20436;-76
2021/05/24 10:04:08;;;;;;;;;;;;;;;19.14;51.82;100857.50;5071992;28;19920;-73
2021/05/24 10:06:36;;;;;;;;;;;;;;;19.15;51.32;100870.00;5073720;28;19924;-75
2021/05/24 10:09:06;;;;;;;;;;;;;;;19.05;51.51;100858.28;5073249;28;19950;-73
2021/05/24 10:11:35;;;;;;;;;;;;;;;19.37;52.49;100864.44;5073569;28;20415;-73
2021/05/24 10:14:03;;;;;;;;;;;;;;;19.56;52.71;100863.72;5073185;28;19920;-73
2021/05/24 10:16:32;;;;;;;;;;;;;;;19.74;52.01;100866.66;5073398;28;19970;-74
2021/05/24 10:19:00;;;;;;;;;;;;;;;19.77;50.97;100865.50;5073252;28;19924;-75
2021/05/24 10:21:28;;;;;;;;;;;;;;;19.80;49.60;100865.25;5073726;28;19928;-76
2021/05/24 10:23:56;;;;;;;;;;;;;;;19.90;50.77;100858.88;5073315;28;19931;-77
2021/05/24 10:26:24;;;;;;;;;;;;;;;20.01;50.66;100875.00;5073631;28;19927;-77
2021/05/24 10:28:55;;;;;;;;;;;;;;;20.02;51.12;100868.59;5073371;28;19981;-76
2021/05/24 10:31:24;;;;;;;;;;;;;;;19.91;50.48;100875.97;5073869;28;19920;-76
2021/05/24 10:33:54;;;;;;;;;;;;;;;19.95;50.54;100864.72;5074043;28;19920;-76
2021/05/24 10:36:23;;;;;;;;;;;;;;;19.91;52.03;100866.00;5073741;28;19970;-76
2021/05/24 10:39:07;;;;;;;;;;;;;;;20.06;50.25;100865.59;5073927;28;19920;-76
2021/05/24 10:41:48;;;;;;;;;;;;;;;20.15;49.98;100859.38;5073491;28;19924;-76
2021/05/24 10:44:17;;;;;;;;;;;;;;;20.00;49.65;100845.38;5073576;28;19924;-76
2021/05/24 10:46:45;;;;;;;;;;;;;;;19.92;50.30;100851.47;5073309;28;20298;-76
2021/05/24 10:49:26;;;;;;;;;;;;;;;20.17;49.87;100858.25;5073164;28;20392;-77
2021/05/24 10:51:59;;;;;;;;;;;;;;;20.24;49.74;100853.97;5073379;28;19927;-76
2021/05/24 10:54:29;;;;;;;;;;;;;;;20.24;50.25;100861.25;5073623;28;20323;-77
2021/05/24 10:57:12;;;;;;;;;;;;;;;20.52;49.63;100849.63;5073647;28;19920;-76
2021/05/24 10:59:54;;;;;;;;;;;;;;;20.54;50.17;100844.03;5073321;28;19921;-76
2021/05/24 11:02:26;;;;;;;;;;;;;;;20.51;50.27;100844.34;5072857;28;19947;-76
2021/05/24 11:04:55;;;;;;;;;;;;;;;20.38;49.15;100854.56;5073520;28;19927;-76
2021/05/24 11:07:24;;;;;;;;;;;;;;;20.32;50.38;100847.84;5073131;28;20232;-76
2021/05/24 11:09:51;;;;;;;;;;;;;;;20.24;48.94;100831.44;5073083;28;19928;-76
2021/05/24 11:12:29;;;;;;;;;;;;;;;20.28;47.09;100824.75;5072263;28;19963;-75
2021/05/24 11:15:09;;;;;;;;;;;;;;;20.29;48.74;100829.19;5072934;28;19920;-76
2021/05/24 11:17:55;;;;;;;;;;;;;;;20.27;46.72;100825.75;5073264;28;19962;-73
2021/05/24 11:20:36;;;;;;;;;;;;;;;19.95;48.55;100832.25;5072686;28;20015;-72
2021/05/24 11:23:10;;;;;;;;;;;;;;;19.70;49.16;100827.34;5072442;28;19924;-74
2021/05/24 11:25:51;;;;;;;;;;;;;;;19.43;49.79;100809.81;5073160;28;19927;-79
2021/05/24 11:28:19;;;;;;;;;;;;;;;19.37;50.47;100807.63;5072706;28;20361;-76
2021/05/24 11:31:06;;;;;;;;;;;;;;;19.54;49.85;100813.41;5073139;28;19920;-75
2021/05/24 11:33:42;;;;;;;;;;;;;;;19.61;48.79;100804.66;5073183;28;20468;-77
2021/05/24 11:36:10;;;;;;;;;;;;;;;19.62;49.85;100808.22;5072723;28;19921;-75
2021/05/24 11:38:40;;;;;;;;;;;;;;;19.53;49.42;100826.09;5072995;28;19990;-81
2021/05/24 11:41:12;;;;;;;;;;;;;;;19.52;48.43;100812.69;5072875;28;19927;-76
2021/05/24 11:43:42;;;;;;;;;;;;;;;19.35;48.74;100816.88;5072999;28;19920;-76
2021/05/24 11:46:11;;;;;;;;;;;;;;;19.31;48.57;100805.50;5072611;28;19920;-76
2021/05/24 11:48:40;;;;;;;;;;;;;;;19.25;50.12;100805.16;5073113;28;20010;-77
2021/05/24 11:51:09;;;;;;;;;;;;;;;19.21;49.13;100803.75;5072284;28;19927;-75
2021/05/24 11:53:37;;;;;;;;;;;;;;;19.15;49.92;100811.38;5072420;28;19950;-80
2021/05/24 11:56:06;;;;;;;;;;;;;;;19.07;50.33;100811.19;5072000;28;19927;-81
2021/05/24 11:58:53;;;;;;;;;;;;;;;19.14;49.84;100808.81;5070163;28;19942;-78
2021/05/24 12:01:22;;;;;;;;;;;;;;;19.35;49.49;100816.88;5072019;28;19920;-79
2021/05/24 12:03:50;;;;;;;;;;;;;;;19.33;50.86;100819.75;5072593;28;19927;-75
2021/05/24 12:06:17;;;;;;;;;;;;;;;19.45;50.15;100813.22;5071899;28;19958;-80
2021/05/24 12:08:45;;;;;;;;;;;;;;;19.47;50.83;100817.66;5072595;28;19924;-83
2021/05/24 12:11:14;;;;;;;;;;;;;;;19.54;50.88;100810.72;5071817;28;20289;-77
2021/05/24 12:13:57;;;;;;;;;;;;;;;19.61;50.39;100804.66;5072356;28;19924;-77
2021/05/24 12:16:29;;;;;;;;;;;;;;;19.57;51.08;100810.47;5072374;28;19920;-75
2021/05/24 12:18:57;;;;;;;;;;;;;;;19.60;51.81;100802.09;5072632;28;19934;-75
2021/05/24 12:21:32;;;;;;;;;;;;;;;19.62;51.90;100798.25;5072122;28;19930;-78
2021/05/24 12:24:03;;;;;;;;;;;;;;;19.43;51.93;100799.00;5075487;28;19927;-75
2021/05/24 12:26:31;;;;;;;;;;;;;;;19.45;53.05;100791.59;5075879;28;19920;-78
2021/05/24 12:28:59;;;;;;;;;;;;;;;19.55;50.86;100788.06;5076175;28;19947;-78
2021/05/24 12:31:28;;;;;;;;;;;;;;;19.68;50.20;100780.59;5075586;28;19942;-78
2021/05/24 12:33:57;;;;;;;;;;;;;;;19.83;50.26;100778.34;5075815;28;19931;-76
2021/05/24 12:36:33;;;;;;;;;;;;;;;19.70;50.45;100773.22;5075463;28;19935;-77
2021/05/24 12:39:04;;;;;;;;;;;;;;;19.65;49.90;100768.19;5076061;28;19921;-79
2021/05/24 12:41:33;;;;;;;;;;;;;;;19.45;48.94;100759.13;5075850;28;19920;-79
2021/05/24 12:44:02;;;;;;;;;;;;;;;19.43;50.89;100755.72;5076087;28;19927;-77
2021/05/24 12:46:38;;;;;;;;;;;;;;;19.38;52.20;100752.53;5075486;28;19959;-76